Time;durP1;ratioP1;P1;durP2;ratioP2;P2;SDS_P1;SDS_P2;PMS_P1;PMS_P2;Temp;Humidity;BMP_temperature;BMP_pressure;BME280_temperature;BME280_humidity;BME280_pressure;Samples;Min_cycle;Max_cycle;Signal;HPM_P1;HPM_P2
2023/05/04 00:01:35;;;;;;;3.58;1.40;;;21.80;55.30;;;;;;5010859;28;20193;-62
2023/05/04 00:04:06;;;;;;;1.85;1.13;;;21.80;55.30;;;;;;5011281;28;20204;-62
2023/05/04 00:06:36;;;;;;;2.65;1.30;;;21.80;55.30;;;;;;5010363;28;20219;-63
2023/05/04 00:09:07;;;;;;;2.65;1.40;;;21.80;55.30;;;;;;5011993;28;20229;-62
2023/05/04 00:11:38;;;;;;;3.47;1.45;;;21.80;55.30;;;;;;5011128;28;20235;-62
2023/05/04 00:14:09;;;;;;;3.13;1.20;;;21.80;55.30;;;;;;5010777;28;20252;-61
2023/05/04 00:16:42;;;;;;;2.17;1.25;;;21.80;55.30;;;;;;5011080;28;20211;-61
2023/05/04 00:19:13;;;;;;;1.42;1.30;;;21.80;55.40;;;;;;5010800;28;20299;-61
2023/05/04 00:21:44;;;;;;;2.35;1.30;;;21.80;55.40;;;;;;5011215;28;20201;-62
2023/05/04 00:24:14;;;;;;;1.48;1.35;;;21.80;55.40;;;;;;5023731;28;20204;-63
2023/05/04 00:26:46;;;;;;;1.48;1.17;;;21.80;55.40;;;;;;5027658;28;20203;-62
2023/05/04 00:29:16;;;;;;;1.88;1.23;;;21.90;55.50;;;;;;5011213;28;20221;-63
2023/05/04 00:31:49;;;;;;;3.15;1.20;;;21.90;55.40;;;;;;5010802;28;20201;-63
2023/05/04 00:34:19;;;;;;;1.45;1.20;;;21.90;55.40;;;;;;5010341;28;20228;-62
2023/05/04 00:36:50;;;;;;;1.60;1.17;;;21.90;55.40;;;;;;5010662;28;20197;-63
2023/05/04 00:39:21;;;;;;;2.53;1.02;;;21.90;55.30;;;;;;5010585;28;20705;-61
2023/05/04 00:41:51;;;;;;;1.98;1.20;;;21.90;55.30;;;;;;5010209;28;20231;-63
2023/05/04 00:44:22;;;;;;;1.80;1.20;;;21.90;55.30;;;;;;5010725;28;20204;-62
2023/05/04 00:46:55;;;;;;;1.55;1.20;;;22.00;55.30;;;;;;5010799;28;20192;-61
2023/05/04 00:49:26;;;;;;;1.60;1.30;;;22.00;55.40;;;;;;5021152;28;20590;-61
2023/05/04 00:51:58;;;;;;;1.65;1.25;;;22.00;55.30;;;;;;5026437;28;20204;-61
2023/05/04 00:54:29;;;;;;;2.17;1.30;;;22.00;55.30;;;;;;5024667;28;20231;-62
2023/05/04 00:57:01;;;;;;;2.42;1.25;;;22.00;55.40;;;;;;5013770;28;20232;-62
2023/05/04 00:59:32;;;;;;;3.50;1.25;;;22.00;55.40;;;;;;5010743;28;20229;-62
2023/05/04 01:02:04;;;;;;;3.13;1.38;;;22.00;55.40;;;;;;5010635;28;20212;-62
2023/05/04 01:04:35;;;;;;;1.48;1.10;;;22.00;55.50;;;;;;5013819;28;20648;-62
2023/05/04 01:07:16;;;;;;;1.95;1.30;;;22.00;55.50;;;;;;5013588;28;20193;-62
2023/05/04 01:09:52;;;;;;;2.17;1.27;;;22.10;55.60;;;;;;5014715;28;20228;-62
2023/05/04 01:12:29;;;;;;;2.75;1.20;;;22.10;55.60;;;;;;5014138;28;20196;-61
2023/05/04 01:15:00;;;;;;;3.28;1.48;;;22.10;55.50;;;;;;5014063;28;20235;-63
2023/05/04 01:17:32;;;;;;;3.33;1.85;;;22.10;55.60;;;;;;5014374;28;20200;-62
2023/05/04 01:20:04;;;;;;;3.97;2.00;;;22.10;55.60;;;;;;5013336;28;20549;-61
2023/05/04 01:22:37;;;;;;;2.10;1.52;;;22.10;55.60;;;;;;5013972;28;20189;-62
2023/05/04 01:25:09;;;;;;;4.13;1.70;;;22.20;55.60;;;;;;5032463;28;20270;-61
2023/05/04 01:27:47;;;;;;;2.63;1.60;;;22.20;55.60;;;;;;5025738;28;20200;-61
2023/05/04 01:30:24;;;;;;;5.50;1.55;;;22.20;55.60;;;;;;5012745;28;20220;-62
2023/05/04 01:32:55;;;;;;;2.92;1.48;;;22.20;55.60;;;;;;5012683;28;20268;-61
2023/05/04 01:35:26;;;;;;;3.55;1.70;;;22.20;55.50;;;;;;5012360;28;20236;-62
2023/05/04 01:37:58;;;;;;;3.00;1.75;;;22.20;55.60;;;;;;5012678;28;20199;-62
2023/05/04 01:40:29;;;;;;;2.33;1.40;;;22.20;55.60;;;;;;5012427;28;20212;-61
2023/05/04 01:43:00;;;;;;;2.47;1.30;;;22.20;55.70;;;;;;5013077;28;20200;-61
2023/05/04 01:45:30;;;;;;;2.97;1.35;;;22.30;55.70;;;;;;5013382;28;20613;-62
2023/05/04 01:48:01;;;;;;;3.40;1.52;;;22.30;55.70;;;;;;5013664;28;20216;-62
2023/05/04 01:50:32;;;;;;;2.00;1.35;;;22.30;55.70;;;;;;5014073;28;20287;-62
2023/05/04 01:53:04;;;;;;;3.28;1.52;;;22.30;55.80;;;;;;5015213;28;20203;-62
2023/05/04 01:55:35;;;;;;;2.33;1.42;;;22.30;55.80;;;;;;5032984;28;20890;-62
2023/05/04 01:58:05;;;;;;;1.83;1.42;;;22.30;55.80;;;;;;5023940;28;20197;-62
2023/05/04 02:00:36;;;;;;;2.35;1.50;;;22.40;55.80;;;;;;5012781;28;20270;-61
2023/05/04 02:03:08;;;;;;;1.77;1.27;;;22.40;55.80;;;;;;5012793;28;20196;-62
2023/05/04 02:05:38;;;;;;;2.30;1.35;;;22.40;55.80;;;;;;5012346;28;20626;-62
2023/05/04 02:08:11;;;;;;;1.85;1.20;;;22.40;55.70;;;;;;5013226;28;20681;-61
2023/05/04 02:10:42;;;;;;;1.55;1.13;;;22.40;55.70;;;;;;5013544;28;20229;-62
2023/05/04 02:13:12;;;;;;;1.98;1.27;;;22.40;55.70;;;;;;5012643;28;20584;-62
2023/05/04 02:15:43;;;;;;;1.67;1.15;;;22.50;55.80;;;;;;5012654;28;20224;-62
2023/05/04 02:18:14;;;;;;;2.90;1.40;;;22.50;55.80;;;;;;5012527;28;20196;-62
2023/05/04 02:20:44;;;;;;;2.63;1.38;;;22.50;55.80;;;;;;5013026;28;20221;-62
2023/05/04 02:23:17;;;;;;;1.85;1.30;;;22.50;55.70;;;;;;5017205;28;20211;-62
2023/05/04 02:25:47;;;;;;;3.65;1.38;;;22.50;55.70;;;;;;5033202;28;20204;-61
2023/05/04 02:28:18;;;;;;;2.00;1.20;;;22.50;55.80;;;;;;5032923;28;20578;-61
2023/05/04 02:30:49;;;;;;;2.33;1.27;;;22.60;55.80;;;;;;5032758;28;20239;-61
2023/05/04 02:33:20;;;;;;;3.75;1.20;;;22.60;55.80;;;;;;5032729;28;20196;-60
2023/05/04 02:35:50;;;;;;;2.03;1.20;;;22.60;55.80;;;;;;5032858;28;20235;-61
2023/05/04 02:38:23;;;;;;;2.08;1.33;;;22.60;55.80;;;;;;5032909;28;20192;-62
2023/05/04 02:40:53;;;;;;;2.13;1.33;;;22.60;55.80;;;;;;5032485;28;20216;-61
2023/05/04 02:43:24;;;;;;;2.17;1.33;;;22.60;55.90;;;;;;5032522;28;20192;-61
2023/05/04 02:45:54;;;;;;;2.20;1.38;;;22.70;55.90;;;;;;5032032;28;20222;-61
2023/05/04 02:48:26;;;;;;;3.22;1.30;;;22.70;55.90;;;;;;5032242;28;20200;-62
2023/05/04 02:50:56;;;;;;;2.22;1.23;;;22.70;55.90;;;;;;5032585;28;20216;-62
2023/05/04 02:53:29;;;;;;;2.10;1.40;;;22.70;55.90;;;;;;5032932;28;20289;-60
2023/05/04 02:55:59;;;;;;;1.35;1.20;;;22.80;56.00;;;;;;5027938;28;20220;-61
2023/05/04 02:58:30;;;;;;;1.58;1.23;;;22.80;56.00;;;;;;5012838;28;20196;-61
2023/05/04 03:01:01;;;;;;;1.58;1.30;;;22.80;56.00;;;;;;5012485;28;20239;-60
2023/05/04 03:03:31;;;;;;;1.10;1.00;;;22.90;56.10;;;;;;5012816;28;20232;-61
2023/05/04 03:06:02;;;;;;;1.83;1.25;;;22.90;56.10;;;;;;5012736;28;20541;-61
2023/05/04 03:08:34;;;;;;;1.92;1.23;;;22.90;56.10;;;;;;5012749;28;20206;-61
2023/05/04 03:11:05;;;;;;;1.42;1.10;;;22.90;56.80;;;;;;5012607;28;20908;-61
2023/05/04 03:13:36;;;;;;;2.25;1.38;;;23.00;56.20;;;;;;5012244;28;20197;-60
2023/05/04 03:16:07;;;;;;;2.00;1.17;;;23.00;56.20;;;;;;5012520;28;20243;-60
2023/05/04 03:18:38;;;;;;;2.25;1.10;;;23.00;56.20;;;;;;5012035;28;20653;-61
2023/05/04 03:21:08;;;;;;;1.40;1.10;;;23.10;56.30;;;;;;5011977;28;20220;-61
2023/05/04 03:23:41;;;;;;;2.80;1.30;;;23.10;56.20;;;;;;5019555;28;20199;-62
2023/05/04 03:26:12;;;;;;;1.15;1.00;;;23.10;56.10;;;;;;5031748;28;20748;-62
2023/05/04 03:28:42;;;;;;;2.35;1.23;;;23.20;56.20;;;;;;5031851;28;20196;-62
2023/05/04 03:31:13;;;;;;;2.03;1.10;;;23.20;56.10;;;;;;5031673;28;20918;-62
2023/05/04 03:33:44;;;;;;;2.00;1.30;;;23.20;56.10;;;;;;5031521;28;20204;-62
2023/05/04 03:36:14;;;;;;;1.90;1.10;;;23.30;56.20;;;;;;5031511;28;20585;-62
2023/05/04 03:38:47;;;;;;;2.40;1.23;;;23.30;56.10;;;;;;5032067;28;20208;-62
2023/05/04 03:41:18;;;;;;;1.20;1.00;;;23.30;56.10;;;;;;5031403;28;20231;-62
2023/05/04 03:43:48;;;;;;;3.20;1.30;;;23.40;56.10;;;;;;5031185;28;20258;-62
2023/05/04 03:46:21;;;;;;;1.65;1.02;;;23.40;56.10;;;;;;5031539;28;20208;-62
2023/05/04 03:48:52;;;;;;;1.75;1.15;;;23.40;56.10;;;;;;5010649;28;20232;-62
2023/05/04 03:51:23;;;;;;;3.35;1.40;;;23.40;56.10;;;;;;5011745;28;20201;-61
2023/05/04 03:53:55;;;;;;;2.42;1.20;;;23.40;56.10;;;;;;5021189;28;20204;-62
2023/05/04 03:56:26;;;;;;;1.88;1.17;;;23.50;56.10;;;;;;5020626;28;20188;-62
2023/05/04 03:58:56;;;;;;;2.03;0.93;;;23.50;56.10;;;;;;5011234;28;20247;-62
2023/05/04 04:01:27;;;;;;;1.58;1.10;;;23.50;56.00;;;;;;5012031;28;20656;-61
2023/05/04 04:03:58;;;;;;;1.48;1.08;;;23.60;56.00;;;;;;5011580;28;20204;-61
2023/05/04 04:06:32;;;;;;;1.17;1.08;;;23.60;56.00;;;;;;5011719;28;20598;-61
2023/05/04 04:09:04;;;;;;;2.22;1.20;;;23.70;55.90;;;;;;5012273;28;20201;-61
2023/05/04 04:11:35;;;;;;;1.77;1.00;;;23.70;55.90;;;;;;5011499;28;20696;-61
2023/05/04 04:14:06;;;;;;;1.45;1.10;;;23.70;55.90;;;;;;5011248;28;20613;-61
2023/05/04 04:16:37;;;;;;;1.60;1.02;;;23.80;55.90;;;;;;5011622;28;20669;-61
2023/05/04 04:19:07;;;;;;;2.15;1.10;;;23.80;55.80;;;;;;5010884;28;20215;-61
2023/05/04 04:21:38;;;;;;;2.47;1.20;;;23.80;55.80;;;;;;5010964;28;20571;-61
2023/05/04 04:24:11;;;;;;;1.23;1.00;;;23.80;55.80;;;;;;5001285;28;20201;-61
2023/05/04 04:26:41;;;;;;;4.63;1.25;;;23.80;55.70;;;;;;5010698;28;20208;-61
2023/05/04 04:29:12;;;;;;;1.08;0.90;;;23.90;55.70;;;;;;5010151;28;20200;-61
2023/05/04 04:31:43;;;;;;;1.38;0.95;;;23.90;55.70;;;;;;5010373;28;20239;-62
2023/05/04 04:34:14;;;;;;;1.85;1.05;;;23.90;55.70;;;;;;5010562;28;20280;-62
2023/05/04 04:36:45;;;;;;;1.55;1.10;;;24.00;55.70;;;;;;5010351;28;20201;-61
2023/05/04 04:39:17;;;;;;;1.27;1.00;;;24.00;55.60;;;;;;5014607;28;20241;-61
2023/05/04 04:41:48;;;;;;;0.98;0.88;;;24.00;55.60;;;;;;5014629;28;20201;-60
2023/05/04 04:44:19;;;;;;;2.80;1.13;;;24.00;55.60;;;;;;5015015;28;20200;-61
2023/05/04 04:46:50;;;;;;;3.08;1.05;;;24.10;55.60;;;;;;5014772;28;20288;-61
2023/05/04 04:49:20;;;;;;;1.00;0.73;;;24.10;55.60;;;;;;5014129;28;20586;-61
2023/05/04 04:51:51;;;;;;;1.10;0.90;;;24.10;56.10;;;;;;5013738;28;20201;-61
2023/05/04 04:54:24;;;;;;;1.75;0.90;;;24.10;55.50;;;;;;5026958;28;20258;-62
2023/05/04 04:56:54;;;;;;;1.17;0.82;;;24.20;55.60;;;;;;5018288;28;20200;-61
2023/05/04 04:59:25;;;;;;;1.20;0.90;;;24.20;55.60;;;;;;5014284;28;20220;-61
2023/05/04 05:01:57;;;;;;;1.33;1.02;;;24.20;55.60;;;;;;5014239;28;20239;-61
2023/05/04 05:04:28;;;;;;;1.65;0.85;;;24.20;55.60;;;;;;5013748;28;20243;-62
2023/05/04 05:06:58;;;;;;;1.27;1.00;;;24.20;55.60;;;;;;5013068;28;20204;-63
2023/05/04 05:09:31;;;;;;;2.45;1.00;;;24.20;55.60;;;;;;5013990;28;20224;-61
2023/05/04 05:12:04;;;;;;;1.75;1.17;;;24.20;55.60;;;;;;5011521;28;20193;-60
2023/05/04 05:14:35;;;;;;;1.63;1.10;;;24.20;55.60;;;;;;5013504;28;20197;-60
2023/05/04 05:17:05;;;;;;;1.70;1.13;;;24.20;55.50;;;;;;5013848;28;20597;-60
2023/05/04 05:19:36;;;;;;;1.50;1.23;;;24.20;55.60;;;;;;5013828;28;20282;-61
2023/05/04 05:22:06;;;;;;;2.45;1.20;;;24.20;55.60;;;;;;5013775;28;20197;-61
2023/05/04 05:24:39;;;;;;;1.08;0.82;;;24.20;55.60;;;;;;5029304;28;20204;-61
2023/05/04 05:27:09;;;;;;;1.50;1.00;;;24.20;55.60;;;;;;5033989;28;20211;-60
2023/05/04 05:29:40;;;;;;;2.75;1.10;;;24.20;55.60;;;;;;5016178;28;20258;-61
2023/05/04 05:32:11;;;;;;;1.35;1.00;;;24.20;55.50;;;;;;5013867;28;20197;-61
2023/05/04 05:34:41;;;;;;;2.47;1.20;;;24.20;55.50;;;;;;5013262;28;20672;-61
2023/05/04 05:37:12;;;;;;;2.30;1.30;;;24.20;55.50;;;;;;5013573;28;20735;-61
2023/05/04 05:39:45;;;;;;;1.65;1.27;;;24.20;55.40;;;;;;5013453;28;20220;-61
2023/05/04 05:42:15;;;;;;;1.92;1.15;;;24.20;55.30;;;;;;5014106;28;20197;-61
2023/05/04 05:44:46;;;;;;;2.33;1.45;;;24.20;55.30;;;;;;5012834;28;20806;-61
2023/05/04 05:47:17;;;;;;;1.45;1.20;;;24.20;55.20;;;;;;5018877;28;20192;-61
2023/05/04 05:49:47;;;;;;;2.30;1.17;;;24.20;55.20;;;;;;5014243;28;20239;-61
2023/05/04 05:52:18;;;;;;;1.92;1.20;;;24.20;55.20;;;;;;5012162;28;20197;-60
2023/05/04 05:54:51;;;;;;;1.95;1.10;;;24.10;55.10;;;;;;5013177;28;20224;-60
2023/05/04 05:57:21;;;;;;;2.42;1.13;;;24.10;55.10;;;;;;5013147;28;20224;-60
2023/05/04 05:59:52;;;;;;;1.88;1.27;;;24.10;55.10;;;;;;5012917;28;20216;-61
2023/05/04 06:02:23;;;;;;;3.08;1.52;;;24.10;55.20;;;;;;5012883;28;20208;-61
2023/05/04 06:04:53;;;;;;;1.88;1.30;;;24.10;55.20;;;;;;5012752;28;20231;-61
2023/05/04 06:07:24;;;;;;;2.15;1.30;;;24.10;55.20;;;;;;5012211;28;20197;-61
2023/05/04 06:09:56;;;;;;;2.05;1.33;;;24.10;55.20;;;;;;5013429;28;20275;-60
2023/05/04 06:12:27;;;;;;;1.77;1.20;;;24.10;55.20;;;;;;5013012;28;20668;-60
2023/05/04 06:14:58;;;;;;;2.22;1.40;;;24.10;55.20;;;;;;5013362;28;20189;-60
2023/05/04 06:17:28;;;;;;;1.63;1.20;;;24.00;55.10;;;;;;5013611;28;20189;-60
2023/05/04 06:19:59;;;;;;;2.50;1.17;;;24.00;55.10;;;;;;5012742;28;20693;-60
2023/05/04 06:22:30;;;;;;;1.80;1.40;;;24.00;55.10;;;;;;5013073;28;20200;-60
2023/05/04 06:25:02;;;;;;;2.70;1.23;;;24.00;55.70;;;;;;5014502;28;20650;-60
2023/05/04 06:27:33;;;;;;;2.17;1.25;;;24.00;55.10;;;;;;5013107;28;20679;-60
2023/05/04 06:30:04;;;;;;;1.92;1.40;;;23.90;55.10;;;;;;5012510;28;20223;-60
2023/05/04 06:32:34;;;;;;;2.47;1.65;;;23.90;55.10;;;;;;5012515;28;20247;-60
2023/05/04 06:35:05;;;;;;;2.47;1.48;;;23.90;55.00;;;;;;5010769;28;20196;-60
2023/05/04 06:37:35;;;;;;;2.38;1.55;;;23.90;55.10;;;;;;5011731;28;20667;-60
2023/05/04 06:40:09;;;;;;;2.78;1.58;;;23.90;55.10;;;;;;5010454;28;20225;-61
2023/05/04 06:42:40;;;;;;;2.92;1.50;;;23.80;55.10;;;;;;5011690;28;20201;-61
2023/05/04 06:45:11;;;;;;;3.35;2.03;;;23.80;55.10;;;;;;5011733;28;20196;-61
2023/05/04 06:47:41;;;;;;;2.17;1.63;;;23.80;55.10;;;;;;5011461;28;20200;-61
2023/05/04 06:50:13;;;;;;;2.92;1.60;;;23.80;55.10;;;;;;5011962;28;20587;-61
2023/05/04 06:52:45;;;;;;;2.63;1.30;;;23.80;55.10;;;;;;5011973;28;20193;-60
2023/05/04 06:55:18;;;;;;;2.10;1.50;;;23.80;55.10;;;;;;5020445;28;20231;-60
2023/05/04 06:57:48;;;;;;;3.72;1.70;;;23.80;55.10;;;;;;5009733;28;20243;-61
2023/05/04 07:00:19;;;;;;;2.45;2.05;;;23.80;55.10;;;;;;5011544;28;20715;-61
2023/05/04 07:02:50;;;;;;;3.25;1.65;;;23.70;55.10;;;;;;5009636;28;20200;-61
2023/05/04 07:05:21;;;;;;;4.03;1.83;;;23.70;55.10;;;;;;5012482;28;20275;-61
2023/05/04 07:07:51;;;;;;;3.53;2.00;;;23.70;55.10;;;;;;5011499;28;20251;-61
2023/05/04 07:10:24;;;;;;;3.80;1.83;;;23.70;55.10;;;;;;5010620;28;20233;-61
2023/05/04 07:12:55;;;;;;;3.25;1.90;;;23.70;55.10;;;;;;4992202;28;20594;-61
2023/05/04 07:15:25;;;;;;;2.63;1.83;;;23.60;55.10;;;;;;4991522;28;20221;-60
2023/05/04 07:17:56;;;;;;;2.90;1.70;;;23.60;55.10;;;;;;4992692;28;20197;-61
2023/05/04 07:20:27;;;;;;;2.65;1.65;;;23.60;55.10;;;;;;4992483;28;20218;-61
2023/05/04 07:22:58;;;;;;;3.42;1.70;;;23.50;55.10;;;;;;4995987;28;20574;-61
2023/05/04 07:25:30;;;;;;;3.35;2.05;;;23.50;55.10;;;;;;5031661;28;20204;-60
2023/05/04 07:28:01;;;;;;;3.55;1.85;;;23.50;55.20;;;;;;5031041;28;20196;-61
2023/05/04 07:30:32;;;;;;;4.35;2.00;;;23.50;55.20;;;;;;5030803;28;20230;-60
2023/05/04 07:33:03;;;;;;;4.00;1.73;;;23.50;55.30;;;;;;5025766;28;20197;-61
2023/05/04 07:35:33;;;;;;;3.53;1.92;;;23.50;55.20;;;;;;5011621;28;20221;-61
2023/05/04 07:38:04;;;;;;;2.65;1.75;;;23.50;55.20;;;;;;5011681;28;20649;-61
2023/05/04 07:40:37;;;;;;;3.17;1.92;;;23.40;55.20;;;;;;5011571;28;20299;-61
2023/05/04 07:43:07;;;;;;;3.08;2.08;;;23.40;55.20;;;;;;5011601;28;20211;-62
2023/05/04 07:45:38;;;;;;;3.30;2.00;;;23.40;55.20;;;;;;4998975;28;20212;-62
2023/05/04 07:48:09;;;;;;;3.65;1.85;;;23.40;55.20;;;;;;4992533;28;20224;-62
2023/05/04 07:50:40;;;;;;;3.70;2.00;;;23.40;55.20;;;;;;5009152;28;20213;-62
2023/05/04 07:53:10;;;;;;;2.97;2.05;;;23.40;55.20;;;;;;5015721;28;20234;-62
2023/05/04 07:55:43;;;;;;;3.33;2.25;;;23.30;55.20;;;;;;5031175;28;20223;-62
2023/05/04 07:58:14;;;;;;;2.92;1.90;;;23.30;55.20;;;;;;5020184;28;20203;-62
2023/05/04 08:00:44;;;;;;;4.35;2.17;;;23.30;55.20;;;;;;5011210;28;20283;-61
2023/05/04 08:03:15;;;;;;;4.18;2.58;;;23.30;55.20;;;;;;5011477;28;20589;-61
2023/05/04 08:05:46;;;;;;;4.28;2.60;;;23.20;55.20;;;;;;5010644;28;20197;-61
2023/05/04 08:08:17;;;;;;;4.10;2.28;;;23.20;55.20;;;;;;5010592;28;20208;-61
2023/05/04 08:10:49;;;;;;;4.32;2.25;;;23.20;55.20;;;;;;5010560;28;20925;-61
2023/05/04 08:13:20;;;;;;;4.90;2.28;;;23.20;55.20;;;;;;5010269;28;20201;-61
2023/05/04 08:15:51;;;;;;;3.72;2.30;;;23.20;55.30;;;;;;5010717;28;20743;-62
2023/05/04 08:18:21;;;;;;;3.63;2.05;;;23.20;55.30;;;;;;5011418;28;20197;-61
2023/05/04 08:20:52;;;;;;;3.08;2.13;;;23.10;55.30;;;;;;5011305;28;20213;-62
2023/05/04 08:23:22;;;;;;;3.80;2.38;;;23.10;55.30;;;;;;5016490;28;20204;-61
2023/05/04 08:25:55;;;;;;;5.22;2.20;;;23.10;55.30;;;;;;5030437;28;20203;-61
2023/05/04 08:28:26;;;;;;;3.13;2.03;;;23.10;55.30;;;;;;5030541;28;20188;-62
2023/05/04 08:30:56;;;;;;;4.47;2.72;;;23.10;55.30;;;;;;5030433;28;20220;-62
2023/05/04 08:33:27;;;;;;;5.35;2.60;;;23.00;55.20;;;;;;5030976;28;20203;-62
2023/05/04 08:35:58;;;;;;;2.95;2.20;;;23.00;55.30;;;;;;5030409;28;20589;-62
2023/05/04 08:38:28;;;;;;;4.18;2.28;;;23.00;55.20;;;;;;5030991;28;20677;-62
2023/05/04 08:41:03;;;;;;;2.90;1.83;;;23.00;55.30;;;;;;5030924;28;20212;-61
2023/05/04 08:43:35;;;;;;;3.42;2.30;;;23.00;55.30;;;;;;5030639;28;20199;-62
2023/05/04 08:46:07;;;;;;;4.97;2.63;;;22.90;55.20;;;;;;5030857;28;20207;-62
2023/05/04 08:48:38;;;;;;;3.35;2.13;;;22.90;55.20;;;;;;5030712;28;20200;-61
2023/05/04 08:51:09;;;;;;;3.53;1.90;;;22.90;55.30;;;;;;5012753;28;20220;-62
2023/05/04 08:53:44;;;;;;;3.88;2.17;;;22.90;55.30;;;;;;5018551;28;20737;-61
2023/05/04 08:56:19;;;;;;;4.30;2.53;;;22.90;55.30;;;;;;5030632;28;20222;-62
2023/05/04 08:58:52;;;;;;;4.05;2.35;;;22.90;55.30;;;;;;5014530;28;20679;-61
2023/05/04 09:01:23;;;;;;;3.50;2.17;;;22.80;55.20;;;;;;5010462;28;20625;-61
2023/05/04 09:03:54;;;;;;;3.53;2.15;;;22.90;55.30;;;;;;5010912;28;20201;-61
2023/05/04 09:06:25;;;;;;;2.63;1.90;;;22.80;55.20;;;;;;5010064;28;20204;-61
2023/05/04 09:08:56;;;;;;;3.28;1.92;;;22.80;55.20;;;;;;5011079;28;20232;-61
2023/05/04 09:11:29;;;;;;;3.60;2.10;;;22.80;55.20;;;;;;5010838;28;20228;-61
2023/05/04 09:13:59;;;;;;;4.80;2.47;;;22.80;55.20;;;;;;5011001;28;20220;-61
2023/05/04 09:16:37;;;;;;;3.35;2.33;;;22.70;55.10;;;;;;5010294;28;20240;-61
2023/05/04 09:19:18;;;;;;;3.53;2.20;;;22.70;55.10;;;;;;5010183;28;20220;-61
2023/05/04 09:21:53;;;;;;;2.83;1.90;;;22.70;55.10;;;;;;5010515;28;20201;-61
2023/05/04 09:24:30;;;;;;;4.07;2.30;;;22.70;55.20;;;;;;5026725;28;20203;-61
2023/05/04 09:27:14;;;;;;;2.88;2.22;;;22.60;55.10;;;;;;5033766;28;20196;-61
2023/05/04 09:29:45;;;;;;;2.83;2.38;;;22.60;55.10;;;;;;5033290;28;20302;-60
2023/05/04 09:32:16;;;;;;;2.83;1.98;;;22.60;55.10;;;;;;5033552;28;20254;-61
2023/05/04 09:34:51;;;;;;;2.20;1.80;;;22.60;55.20;;;;;;5033547;28;20200;-61
2023/05/04 09:37:22;;;;;;;4.35;2.20;;;22.50;55.10;;;;;;5033969;28;20231;-61
2023/05/04 09:39:55;;;;;;;3.58;2.38;;;22.50;55.10;;;;;;5034306;28;20299;-62
2023/05/04 09:42:28;;;;;;;3.05;2.10;;;22.50;55.10;;;;;;5033713;28;20200;-61
2023/05/04 09:45:06;;;;;;;2.97;2.10;;;22.50;55.10;;;;;;5033407;28;20200;-61
2023/05/04 09:47:38;;;;;;;3.83;2.42;;;22.50;55.10;;;;;;5019619;28;20196;-61
2023/05/04 09:50:16;;;;;;;3.53;2.30;;;22.50;55.10;;;;;;5013723;28;20305;-61
2023/05/04 09:52:48;;;;;;;3.28;2.45;;;22.40;55.10;;;;;;5014378;28;20204;-61
2023/05/04 09:55:19;;;;;;;3.78;2.15;;;22.40;55.10;;;;;;5032331;28;20204;-61
2023/05/04 09:57:53;;;;;;;3.20;2.38;;;22.40;55.10;;;;;;5013060;28;20622;-61
2023/05/04 10:00:23;;;;;;;2.28;1.90;;;22.40;55.10;;;;;;5013749;28;20224;-60
2023/05/04 10:02:54;;;;;;;3.63;2.17;;;22.40;55.10;;;;;;5013785;28;20211;-61
2023/05/04 10:05:25;;;;;;;2.97;1.98;;;22.40;55.10;;;;;;5013541;28;20664;-61
2023/05/04 10:07:56;;;;;;;3.63;2.20;;;22.30;55.10;;;;;;5013382;28;20202;-61
2023/05/04 10:10:27;;;;;;;3.33;2.28;;;22.30;55.10;;;;;;5013367;28;20239;-62
2023/05/04 10:13:00;;;;;;;3.83;2.40;;;22.30;55.10;;;;;;5014391;28;20201;-62
2023/05/04 10:15:30;;;;;;;2.88;2.20;;;22.20;55.10;;;;;;5005643;28;20571;-62
2023/05/04 10:18:14;;;;;;;3.50;2.20;;;22.20;55.10;;;;;;5001236;28;20685;-62
2023/05/04 10:21:00;;;;;;;4.20;2.30;;;22.20;55.10;;;;;;5004333;28;20692;-62
2023/05/04 10:23:55;;;;;;;3.53;2.13;;;22.20;55.10;;;;;;5019687;28;20200;-61
2023/05/04 10:26:49;;;;;;;3.20;2.15;;;22.20;55.10;;;;;;5015181;28;20558;-62
2023/05/04 10:29:25;;;;;;;2.70;2.20;;;22.20;55.10;;;;;;5017598;28;20287;-61
2023/05/04 10:31:56;;;;;;;3.55;2.42;;;22.10;55.00;;;;;;4993201;28;20197;-61
2023/05/04 10:34:27;;;;;;;3.08;2.20;;;22.10;55.10;;;;;;5006863;28;20196;-61
2023/05/04 10:36:58;;;;;;;3.05;2.13;;;22.10;55.10;;;;;;5012540;28;20264;-61
2023/05/04 10:39:30;;;;;;;3.50;2.30;;;22.10;55.10;;;;;;5012745;28;20217;-61
2023/05/04 10:42:05;;;;;;;5.03;2.30;;;22.10;55.10;;;;;;5013062;28;20204;-61
2023/05/04 10:44:51;;;;;;;4.75;2.50;;;22.00;55.10;;;;;;5012114;28;20200;-61
2023/05/04 10:47:31;;;;;;;3.10;2.10;;;22.00;55.10;;;;;;5011903;28;20232;-61
2023/05/04 10:50:06;;;;;;;3.40;2.10;;;22.00;55.10;;;;;;5011910;28;20216;-61
2023/05/04 10:52:48;;;;;;;2.67;1.85;;;22.00;55.10;;;;;;5011981;28;20200;-61
2023/05/04 10:55:19;;;;;;;2.42;1.83;;;21.90;55.10;;;;;;4998269;28;20646;-61
2023/05/04 10:57:51;;;;;;;3.45;2.22;;;21.90;55.10;;;;;;5012618;28;20585;-61
2023/05/04 11:00:24;;;;;;;3.47;1.92;;;21.90;55.10;;;;;;5010753;28;20251;-60
2023/05/04 11:03:06;;;;;;;3.30;1.92;;;21.90;55.10;;;;;;5011603;28;20205;-61
2023/05/04 11:05:46;;;;;;;3.75;2.00;;;21.80;55.10;;;;;;5010798;28;20193;-61
2023/05/04 11:08:21;;;;;;;3.97;2.08;;;21.90;55.10;;;;;;5011197;28;20235;-61
2023/05/04 11:11:03;;;;;;;2.88;2.10;;;21.80;55.10;;;;;;5009506;28;20220;-61
2023/05/04 11:13:35;;;;;;;4.35;2.17;;;21.80;55.10;;;;;;5012276;28;20283;-62
2023/05/04 11:16:08;;;;;;;3.10;2.22;;;21.80;55.10;;;;;;5011719;28;20204;-61
2023/05/04 11:18:39;;;;;;;3.10;2.00;;;21.80;55.10;;;;;;5011416;28;20566;-62
2023/05/04 11:21:10;;;;;;;3.03;2.10;;;21.70;55.00;;;;;;5011680;28;20213;-61
2023/05/04 11:23:42;;;;;;;4.80;2.10;;;21.80;55.10;;;;;;5015461;28;20588;-61
2023/05/04 11:26:13;;;;;;;3.22;2.05;;;21.70;55.10;;;;;;5019619;28;20272;-61
2023/05/04 11:28:44;;;;;;;2.33;1.90;;;21.70;55.10;;;;;;5010812;28;20553;-61
2023/05/04 11:31:21;;;;;;;2.72;2.20;;;21.70;55.10;;;;;;5009101;28;20224;-61
2023/05/04 11:33:53;;;;;;;2.65;1.92;;;21.60;55.10;;;;;;5010066;28;20201;-61
2023/05/04 11:36:24;;;;;;;3.38;2.10;;;21.60;55.10;;;;;;5009266;28;20225;-62
2023/05/04 11:38:59;;;;;;;2.33;1.90;;;21.60;55.10;;;;;;5009730;28;20673;-62
2023/05/04 11:41:30;;;;;;;2.67;1.90;;;21.60;55.20;;;;;;5009486;28;20208;-61
2023/05/04 11:44:04;;;;;;;5.18;2.20;;;21.60;55.20;;;;;;5009590;28;20211;-61
2023/05/04 11:46:38;;;;;;;3.45;2.28;;;21.50;55.10;;;;;;5009198;28;20410;-62
2023/05/04 11:49:09;;;;;;;2.63;2.08;;;21.50;55.10;;;;;;5009246;28;20240;-61
2023/05/04 11:51:39;;;;;;;3.80;2.10;;;21.50;55.10;;;;;;5003910;28;20200;-61
2023/05/04 11:54:20;;;;;;;3.13;1.95;;;21.50;55.10;;;;;;5018123;28;20200;-61
2023/05/04 11:56:51;;;;;;;2.65;2.00;;;21.50;55.10;;;;;;5005730;28;20204;-61
2023/05/04 11:59:21;;;;;;;3.65;2.17;;;21.50;55.10;;;;;;5010798;28;20672;-60
2023/05/04 12:01:54;;;;;;;3.15;2.25;;;21.50;55.10;;;;;;5025967;28;20192;-61
2023/05/04 12:04:25;;;;;;;4.03;2.10;;;21.40;55.10;;;;;;5018038;28;20676;-61
2023/05/04 12:06:56;;;;;;;4.10;2.10;;;21.40;55.10;;;;;;5021753;28;20483;-61
2023/05/04 12:09:26;;;;;;;3.22;2.10;;;21.40;55.10;;;;;;5007868;28;20278;-61
2023/05/04 12:11:57;;;;;;;3.38;2.40;;;21.40;55.10;;;;;;5009790;28;20216;-61
2023/05/04 12:14:28;;;;;;;2.00;1.80;;;21.40;55.70;;;;;;5009746;28;20201;-61
2023/05/04 12:17:02;;;;;;;2.85;2.08;;;21.30;55.10;;;;;;5010051;28;20219;-61
2023/05/04 12:19:33;;;;;;;2.15;1.67;;;21.30;55.20;;;;;;5009313;28;20819;-61
2023/05/04 12:22:04;;;;;;;2.25;1.60;;;21.30;55.10;;;;;;5010083;28;20640;-60
2023/05/04 12:24:35;;;;;;;2.88;1.92;;;21.20;55.10;;;;;;5024371;28;20207;-60
2023/05/04 12:27:06;;;;;;;3.72;2.25;;;21.20;55.10;;;;;;5028609;28;20211;-60
2023/05/04 12:29:36;;;;;;;2.25;1.77;;;21.20;55.10;;;;;;5028629;28;20313;-61
2023/05/04 12:32:09;;;;;;;2.58;1.98;;;21.20;55.10;;;;;;5028557;28;20556;-61
2023/05/04 12:34:40;;;;;;;3.95;2.20;;;21.20;55.20;;;;;;5001795;28;20208;-61
2023/05/04 12:37:11;;;;;;;3.25;2.20;;;21.20;55.10;;;;;;5010697;28;20221;-62
2023/05/04 12:39:42;;;;;;;3.15;2.22;;;21.20;55.10;;;;;;5010716;28;20259;-62
2023/05/04 12:42:12;;;;;;;3.25;2.00;;;21.10;55.10;;;;;;5011254;28;20200;-62
2023/05/04 12:44:43;;;;;;;2.95;2.50;;;21.10;55.10;;;;;;5011567;28;20200;-62
2023/05/04 12:47:16;;;;;;;3.83;2.83;;;21.10;55.10;;;;;;5011206;28;20201;-61
2023/05/04 12:49:47;;;;;;;2.65;2.08;;;21.10;55.10;;;;;;5011091;28;20209;-61
2023/05/04 12:52:17;;;;;;;3.00;2.20;;;21.10;55.10;;;;;;5011011;28;20197;-62
2023/05/04 12:54:48;;;;;;;3.70;2.60;;;21.00;55.00;;;;;;5028217;28;20204;-62
2023/05/04 12:57:19;;;;;;;3.78;2.33;;;21.00;55.00;;;;;;5018334;28;20294;-62
2023/05/04 12:59:49;;;;;;;2.15;1.67;;;21.00;55.10;;;;;;5013248;28;20213;-61
2023/05/04 13:02:22;;;;;;;2.72;2.13;;;21.00;55.10;;;;;;5012891;28;20700;-62
2023/05/04 13:04:52;;;;;;;3.58;2.50;;;20.90;55.10;;;;;;5010452;28;20200;-62
2023/05/04 13:07:23;;;;;;;2.63;1.98;;;20.90;55.10;;;;;;5010537;28;20197;-62
2023/05/04 13:09:54;;;;;;;2.20;1.90;;;20.90;55.10;;;;;;5012940;28;20224;-63
2023/05/04 13:12:25;;;;;;;3.33;2.15;;;20.90;55.10;;;;;;5012347;28;20663;-61